sensor_id;sensor_type;location;lat;lon;timestamp;temperature;humidity
46652;DHT22;32377;52.182;5.398;2024-03-02T00:00:21;9.90;99.90
46652;DHT22;32377;52.182;5.398;2024-03-02T00:02:49;9.90;99.90
46652;DHT22;32377;52.182;5.398;2024-03-02T00:05:16;9.90;99.90
46652;DHT22;32377;52.182;5.398;2024-03-02T00:07:43;9.90;99.90
46652;DHT22;32377;52.182;5.398;2024-03-02T00:10:10;9.90;99.90
46652;DHT22;32377;52.182;5.398;2024-03-02T00:12:39;9.90;99.90
46652;DHT22;32377;52.182;5.398;2024-03-02T00:17:53;9.90;99.90
46652;DHT22;32377;52.182;5.398;2024-03-02T00:20:22;10.00;99.90
46652;DHT22;32377;52.182;5.398;2024-03-02T00:22:48;9.90;99.90
46652;DHT22;32377;52.182;5.398;2024-03-02T00:25:13;10.00;99.90
46652;DHT22;32377;52.182;5.398;2024-03-02T00:27:39;10.00;99.90
46652;DHT22;32377;52.182;5.398;2024-03-02T00:32:59;10.00;99.90
46652;DHT22;32377;52.182;5.398;2024-03-02T00:35:24;10.10;99.90
46652;DHT22;32377;52.182;5.398;2024-03-02T00:37:50;10.10;99.90
46652;DHT22;32377;52.182;5.398;2024-03-02T00:40:17;10.10;99.90
46652;DHT22;32377;52.182;5.398;2024-03-02T00:42:42;10.10;99.90
46652;DHT22;32377;52.182;5.398;2024-03-02T00:45:08;10.20;99.90
46652;DHT22;32377;52.182;5.398;2024-03-02T00:47:38;10.10;99.90
46652;DHT22;32377;52.182;5.398;2024-03-02T00:50:05;10.10;99.90
46652;DHT22;32377;52.182;5.398;2024-03-02T00:52:31;10.00;99.90
46652;DHT22;32377;52.182;5.398;2024-03-02T00:54:58;10.00;99.90
46652;DHT22;32377;52.182;5.398;2024-03-02T00:57:24;9.90;99.90
46652;DHT22;32377;52.182;5.398;2024-03-02T00:59:51;9.90;99.90
46652;DHT22;32377;52.182;5.398;2024-03-02T01:02:17;9.80;99.90
46652;DHT22;32377;52.182;5.398;2024-03-02T01:04:45;9.70;99.90
46652;DHT22;32377;52.182;5.398;2024-03-02T01:07:11;9.60;99.90
46652;DHT22;32377;52.182;5.398;2024-03-02T01:09:36;9.70;99.90
46652;DHT22;32377;52.182;5.398;2024-03-02T01:12:02;9.60;99.90
46652;DHT22;32377;52.182;5.398;2024-03-02T01:14:28;9.50;99.90
46652;DHT22;32377;52.182;5.398;2024-03-02T01:16:53;9.40;1.00
46652;DHT22;32377;52.182;5.398;2024-03-02T01:19:19;9.40;1.00
46652;DHT22;32377;52.182;5.398;2024-03-02T01:21:45;9.30;1.00
46652;DHT22;32377;52.182;5.398;2024-03-02T01:24:11;9.20;1.00
46652;DHT22;32377;52.182;5.398;2024-03-02T01:26:38;9.10;1.00
46652;DHT22;32377;52.182;5.398;2024-03-02T01:29:04;9.00;18.60
46652;DHT22;32377;52.182;5.398;2024-03-02T01:31:29;8.90;61.80
46652;DHT22;32377;52.182;5.398;2024-03-02T01:33:55;8.80;99.90
46652;DHT22;32377;52.182;5.398;2024-03-02T01:36:21;8.70;99.90
46652;DHT22;32377;52.182;5.398;2024-03-02T01:38:46;8.70;99.90
46652;DHT22;32377;52.182;5.398;2024-03-02T01:41:12;8.70;99.90
46652;DHT22;32377;52.182;5.398;2024-03-02T01:43:38;8.70;99.90
46652;DHT22;32377;52.182;5.398;2024-03-02T01:46:04;8.70;99.90
46652;DHT22;32377;52.182;5.398;2024-03-02T01:48:30;8.60;99.90
46652;DHT22;32377;52.182;5.398;2024-03-02T01:50:55;8.60;99.90
46652;DHT22;32377;52.182;5.398;2024-03-02T01:53:21;8.70;99.90
46652;DHT22;32377;52.182;5.398;2024-03-02T01:55:46;8.70;99.90
46652;DHT22;32377;52.182;5.398;2024-03-02T01:58:12;8.70;99.90
46652;DHT22;32377;52.182;5.398;2024-03-02T02:00:37;8.70;99.90
46652;DHT22;32377;52.182;5.398;2024-03-02T02:03:03;8.60;99.90
46652;DHT22;32377;52.182;5.398;2024-03-02T02:05:29;8.60;99.90
46652;DHT22;32377;52.182;5.398;2024-03-02T02:07:55;8.60;99.90
46652;DHT22;32377;52.182;5.398;2024-03-02T02:10:20;8.60;99.90
46652;DHT22;32377;52.182;5.398;2024-03-02T02:12:46;8.60;99.90
46652;DHT22;32377;52.182;5.398;2024-03-02T02:17:47;8.50;99.90
46652;DHT22;32377;52.182;5.398;2024-03-02T02:20:12;8.50;99.90
46652;DHT22;32377;52.182;5.398;2024-03-02T02:22:39;8.50;99.90
46652;DHT22;32377;52.182;5.398;2024-03-02T02:25:05;8.50;1.00
46652;DHT22;32377;52.182;5.398;2024-03-02T02:27:31;8.40;1.00
46652;DHT22;32377;52.182;5.398;2024-03-02T02:29:56;8.40;1.00
46652;DHT22;32377;52.182;5.398;2024-03-02T02:32:22;8.30;1.00
46652;DHT22;32377;52.182;5.398;2024-03-02T02:34:52;8.30;37.00
46652;DHT22;32377;52.182;5.398;2024-03-02T02:37:18;8.20;95.60
46652;DHT22;32377;52.182;5.398;2024-03-02T02:39:43;8.20;99.90
46652;DHT22;32377;52.182;5.398;2024-03-02T02:42:09;8.20;99.90
46652;DHT22;32377;52.182;5.398;2024-03-02T02:44:34;8.20;99.90
46652;DHT22;32377;52.182;5.398;2024-03-02T02:47:00;8.10;99.90
46652;DHT22;32377;52.182;5.398;2024-03-02T02:49:26;8.10;99.90
46652;DHT22;32377;52.182;5.398;2024-03-02T02:51:52;8.00;99.90
46652;DHT22;32377;52.182;5.398;2024-03-02T02:54:17;8.00;1.00
46652;DHT22;32377;52.182;5.398;2024-03-02T02:56:43;8.00;1.00
46652;DHT22;32377;52.182;5.398;2024-03-02T02:59:08;8.00;1.00
46652;DHT22;32377;52.182;5.398;2024-03-02T03:01:34;7.90;12.30
46652;DHT22;32377;52.182;5.398;2024-03-02T03:04:00;7.90;52.30
46652;DHT22;32377;52.182;5.398;2024-03-02T03:06:25;7.80;71.80
46652;DHT22;32377;52.182;5.398;2024-03-02T03:08:51;7.90;99.90
46652;DHT22;32377;52.182;5.398;2024-03-02T03:11:16;7.80;99.90
46652;DHT22;32377;52.182;5.398;2024-03-02T03:13:42;7.80;99.90
46652;DHT22;32377;52.182;5.398;2024-03-02T03:16:08;7.70;99.90
46652;DHT22;32377;52.182;5.398;2024-03-02T03:18:33;7.70;99.90
46652;DHT22;32377;52.182;5.398;2024-03-02T03:20:59;7.70;99.90
46652;DHT22;32377;52.182;5.398;2024-03-02T03:23:25;7.60;99.90
46652;DHT22;32377;52.182;5.398;2024-03-02T03:25:51;7.50;99.90
46652;DHT22;32377;52.182;5.398;2024-03-02T03:28:16;7.50;99.90
46652;DHT22;32377;52.182;5.398;2024-03-02T03:30:42;7.50;99.90
46652;DHT22;32377;52.182;5.398;2024-03-02T03:33:08;7.50;99.90
46652;DHT22;32377;52.182;5.398;2024-03-02T03:35:35;7.50;99.90
46652;DHT22;32377;52.182;5.398;2024-03-02T03:38:01;7.50;99.90
46652;DHT22;32377;52.182;5.398;2024-03-02T03:40:27;7.40;99.90
46652;DHT22;32377;52.182;5.398;2024-03-02T03:42:52;7.40;99.90
46652;DHT22;32377;52.182;5.398;2024-03-02T03:45:18;7.40;99.90
46652;DHT22;32377;52.182;5.398;2024-03-02T03:47:44;7.30;99.90
46652;DHT22;32377;52.182;5.398;2024-03-02T03:50:09;7.30;99.90
46652;DHT22;32377;52.182;5.398;2024-03-02T03:52:35;7.40;99.90
46652;DHT22;32377;52.182;5.398;2024-03-02T03:55:01;7.40;99.90
46652;DHT22;32377;52.182;5.398;2024-03-02T03:57:27;7.30;99.90
46652;DHT22;32377;52.182;5.398;2024-03-02T03:59:53;7.40;99.90
46652;DHT22;32377;52.182;5.398;2024-03-02T04:02:19;7.50;99.90
46652;DHT22;32377;52.182;5.398;2024-03-02T04:04:44;7.50;99.90
46652;DHT22;32377;52.182;5.398;2024-03-02T04:07:10;7.50;99.90
46652;DHT22;32377;52.182;5.398;2024-03-02T04:09:36;7.50;99.90
46652;DHT22;32377;52.182;5.398;2024-03-02T04:12:01;7.50;99.90
46652;DHT22;32377;52.182;5.398;2024-03-02T04:14:27;7.60;96.50
46652;DHT22;32377;52.182;5.398;2024-03-02T04:16:52;7.60;73.40
46652;DHT22;32377;52.182;5.398;2024-03-02T04:19:18;7.70;31.50
46652;DHT22;32377;52.182;5.398;2024-03-02T04:21:44;7.70;1.00
46652;DHT22;32377;52.182;5.398;2024-03-02T04:24:09;7.80;1.00
46652;DHT22;32377;52.182;5.398;2024-03-02T04:26:35;7.80;1.00
46652;DHT22;32377;52.182;5.398;2024-03-02T04:29:00;7.80;1.00
46652;DHT22;32377;52.182;5.398;2024-03-02T04:31:27;7.70;99.90
46652;DHT22;32377;52.182;5.398;2024-03-02T04:33:52;7.80;99.90
46652;DHT22;32377;52.182;5.398;2024-03-02T04:36:19;7.80;99.90
46652;DHT22;32377;52.182;5.398;2024-03-02T04:38:46;7.80;99.90
46652;DHT22;32377;52.182;5.398;2024-03-02T04:41:11;7.80;99.90
46652;DHT22;32377;52.182;5.398;2024-03-02T04:43:37;7.90;99.90
46652;DHT22;32377;52.182;5.398;2024-03-02T04:46:02;7.90;99.90
46652;DHT22;32377;52.182;5.398;2024-03-02T04:48:28;7.90;99.90
46652;DHT22;32377;52.182;5.398;2024-03-02T04:50:54;7.90;99.90
46652;DHT22;32377;52.182;5.398;2024-03-02T04:53:19;7.90;99.90
46652;DHT22;32377;52.182;5.398;2024-03-02T04:55:45;8.00;99.90
46652;DHT22;32377;52.182;5.398;2024-03-02T04:59:27;7.90;99.90
46652;DHT22;32377;52.182;5.398;2024-03-02T05:01:53;7.90;99.90
46652;DHT22;32377;52.182;5.398;2024-03-02T05:04:18;7.90;99.90
46652;DHT22;32377;52.182;5.398;2024-03-02T05:06:44;7.90;99.90
46652;DHT22;32377;52.182;5.398;2024-03-02T05:09:10;7.90;99.90
46652;DHT22;32377;52.182;5.398;2024-03-02T05:11:35;7.90;99.90
46652;DHT22;32377;52.182;5.398;2024-03-02T05:14:19;7.80;99.90
46652;DHT22;32377;52.182;5.398;2024-03-02T05:16:44;7.80;99.90
46652;DHT22;32377;52.182;5.398;2024-03-02T05:19:10;7.90;99.90
46652;DHT22;32377;52.182;5.398;2024-03-02T05:21:35;7.80;82.10
46652;DHT22;32377;52.182;5.398;2024-03-02T05:24:01;7.80;72.60
46652;DHT22;32377;52.182;5.398;2024-03-02T05:26:27;7.80;1.00
46652;DHT22;32377;52.182;5.398;2024-03-02T05:28:53;7.90;1.00
46652;DHT22;32377;52.182;5.398;2024-03-02T05:31:18;7.80;1.00
46652;DHT22;32377;52.182;5.398;2024-03-02T05:33:44;7.80;1.00
46652;DHT22;32377;52.182;5.398;2024-03-02T05:36:13;7.80;1.00
46652;DHT22;32377;52.182;5.398;2024-03-02T05:38:39;7.80;1.00
46652;DHT22;32377;52.182;5.398;2024-03-02T05:41:04;7.80;99.90
46652;DHT22;32377;52.182;5.398;2024-03-02T05:43:30;7.80;99.90
46652;DHT22;32377;52.182;5.398;2024-03-02T05:45:55;7.70;99.90
46652;DHT22;32377;52.182;5.398;2024-03-02T05:48:21;7.70;99.90
46652;DHT22;32377;52.182;5.398;2024-03-02T05:50:46;7.60;99.90
46652;DHT22;32377;52.182;5.398;2024-03-02T05:53:12;7.50;99.90
46652;DHT22;32377;52.182;5.398;2024-03-02T05:55:37;7.40;99.90
46652;DHT22;32377;52.182;5.398;2024-03-02T05:58:03;7.40;99.90
46652;DHT22;32377;52.182;5.398;2024-03-02T06:00:32;7.30;99.90
46652;DHT22;32377;52.182;5.398;2024-03-02T06:02:57;7.20;99.90
46652;DHT22;32377;52.182;5.398;2024-03-02T06:05:23;7.20;99.90
46652;DHT22;32377;52.182;5.398;2024-03-02T06:07:50;7.20;99.90
46652;DHT22;32377;52.182;5.398;2024-03-02T06:10:16;7.30;99.90
46652;DHT22;32377;52.182;5.398;2024-03-02T06:12:41;7.40;99.90
46652;DHT22;32377;52.182;5.398;2024-03-02T06:15:07;7.50;99.90
46652;DHT22;32377;52.182;5.398;2024-03-02T06:17:35;7.50;99.90
46652;DHT22;32377;52.182;5.398;2024-03-02T06:20:01;7.50;99.90
46652;DHT22;32377;52.182;5.398;2024-03-02T06:22:26;7.50;99.90
46652;DHT22;32377;52.182;5.398;2024-03-02T06:24:52;7.60;99.90
46652;DHT22;32377;52.182;5.398;2024-03-02T06:27:17;7.60;99.90
46652;DHT22;32377;52.182;5.398;2024-03-02T06:29:43;7.60;99.90
46652;DHT22;32377;52.182;5.398;2024-03-02T06:32:08;7.70;99.90
46652;DHT22;32377;52.182;5.398;2024-03-02T06:34:34;7.70;99.90
46652;DHT22;32377;52.182;5.398;2024-03-02T06:36:59;7.70;99.90
46652;DHT22;32377;52.182;5.398;2024-03-02T06:39:25;7.70;99.90
46652;DHT22;32377;52.182;5.398;2024-03-02T06:41:51;7.80;99.90
46652;DHT22;32377;52.182;5.398;2024-03-02T06:44:17;7.80;99.90
46652;DHT22;32377;52.182;5.398;2024-03-02T06:46:42;7.80;99.90
46652;DHT22;32377;52.182;5.398;2024-03-02T06:49:08;7.90;99.90
46652;DHT22;32377;52.182;5.398;2024-03-02T06:51:36;7.90;99.90
46652;DHT22;32377;52.182;5.398;2024-03-02T06:54:01;7.80;99.90
46652;DHT22;32377;52.182;5.398;2024-03-02T06:56:27;7.80;99.90
46652;DHT22;32377;52.182;5.398;2024-03-02T06:58:52;7.70;99.90
46652;DHT22;32377;52.182;5.398;2024-03-02T07:01:18;7.70;99.90
46652;DHT22;32377;52.182;5.398;2024-03-02T07:03:45;7.70;99.90
46652;DHT22;32377;52.182;5.398;2024-03-02T07:06:11;7.70;99.90
46652;DHT22;32377;52.182;5.398;2024-03-02T07:08:36;7.70;99.90
46652;DHT22;32377;52.182;5.398;2024-03-02T07:11:02;7.70;99.90
46652;DHT22;32377;52.182;5.398;2024-03-02T07:13:28;7.80;99.90
46652;DHT22;32377;52.182;5.398;2024-03-02T07:15:53;7.70;99.90
46652;DHT22;32377;52.182;5.398;2024-03-02T07:18:28;7.80;96.80
46652;DHT22;32377;52.182;5.398;2024-03-02T07:20:53;7.80;98.30
46652;DHT22;32377;52.182;5.398;2024-03-02T07:23:20;7.90;74.80
46652;DHT22;32377;52.182;5.398;2024-03-02T07:25:49;8.00;63.90
46652;DHT22;32377;52.182;5.398;2024-03-02T07:28:15;8.00;52.50
46652;DHT22;32377;52.182;5.398;2024-03-02T07:30:41;8.00;57.90
46652;DHT22;32377;52.182;5.398;2024-03-02T07:33:07;8.10;43.70
46652;DHT22;32377;52.182;5.398;2024-03-02T07:35:32;8.20;31.40
46652;DHT22;32377;52.182;5.398;2024-03-02T07:37:58;8.20;18.40
46652;DHT22;32377;52.182;5.398;2024-03-02T07:40:24;8.30;1.00
46652;DHT22;32377;52.182;5.398;2024-03-02T07:42:50;8.30;1.00
46652;DHT22;32377;52.182;5.398;2024-03-02T07:45:16;8.30;1.00
46652;DHT22;32377;52.182;5.398;2024-03-02T07:47:41;8.30;1.00
46652;DHT22;32377;52.182;5.398;2024-03-02T07:50:07;8.40;1.00
46652;DHT22;32377;52.182;5.398;2024-03-02T07:52:33;8.40;1.00
46652;DHT22;32377;52.182;5.398;2024-03-02T07:54:59;8.40;1.00
46652;DHT22;32377;52.182;5.398;2024-03-02T07:57:25;8.40;1.00
46652;DHT22;32377;52.182;5.398;2024-03-02T07:59:51;8.30;1.00
46652;DHT22;32377;52.182;5.398;2024-03-02T08:02:16;8.30;1.00
46652;DHT22;32377;52.182;5.398;2024-03-02T08:04:43;8.30;1.00
46652;DHT22;32377;52.182;5.398;2024-03-02T08:07:08;8.20;1.00
46652;DHT22;32377;52.182;5.398;2024-03-02T08:09:34;8.20;1.00
46652;DHT22;32377;52.182;5.398;2024-03-02T08:12:00;8.20;1.00
46652;DHT22;32377;52.182;5.398;2024-03-02T08:14:26;8.20;1.00
46652;DHT22;32377;52.182;5.398;2024-03-02T08:16:51;8.20;1.00
46652;DHT22;32377;52.182;5.398;2024-03-02T08:19:17;8.10;1.00
46652;DHT22;32377;52.182;5.398;2024-03-02T08:21:43;8.10;1.00
46652;DHT22;32377;52.182;5.398;2024-03-02T08:24:09;8.10;1.00
46652;DHT22;32377;52.182;5.398;2024-03-02T08:26:35;8.10;1.00
46652;DHT22;32377;52.182;5.398;2024-03-02T08:29:01;8.10;1.00
46652;DHT22;32377;52.182;5.398;2024-03-02T08:31:29;8.20;1.00
46652;DHT22;32377;52.182;5.398;2024-03-02T08:33:54;8.30;1.00
46652;DHT22;32377;52.182;5.398;2024-03-02T08:36:20;8.40;1.00
46652;DHT22;32377;52.182;5.398;2024-03-02T08:38:46;8.50;1.00
46652;DHT22;32377;52.182;5.398;2024-03-02T08:41:13;8.60;1.00
46652;DHT22;32377;52.182;5.398;2024-03-02T08:43:40;8.70;1.00
46652;DHT22;32377;52.182;5.398;2024-03-02T08:46:07;8.80;1.00
46652;DHT22;32377;52.182;5.398;2024-03-02T08:48:32;8.90;1.00
46652;DHT22;32377;52.182;5.398;2024-03-02T08:50:58;9.00;1.00
46652;DHT22;32377;52.182;5.398;2024-03-02T08:53:24;9.00;1.00
46652;DHT22;32377;52.182;5.398;2024-03-02T08:55:49;9.10;99.90
46652;DHT22;32377;52.182;5.398;2024-03-02T08:58:15;9.20;99.90
46652;DHT22;32377;52.182;5.398;2024-03-02T09:00:41;9.20;99.90
46652;DHT22;32377;52.182;5.398;2024-03-02T09:03:07;9.20;99.90
46652;DHT22;32377;52.182;5.398;2024-03-02T09:05:33;9.30;99.90
46652;DHT22;32377;52.182;5.398;2024-03-02T09:07:58;9.30;99.90
46652;DHT22;32377;52.182;5.398;2024-03-02T09:10:24;9.40;99.90
46652;DHT22;32377;52.182;5.398;2024-03-02T09:12:50;9.40;99.90
46652;DHT22;32377;52.182;5.398;2024-03-02T09:15:15;9.50;99.90
46652;DHT22;32377;52.182;5.398;2024-03-02T09:17:41;9.60;99.90
46652;DHT22;32377;52.182;5.398;2024-03-02T09:20:07;9.60;99.90
46652;DHT22;32377;52.182;5.398;2024-03-02T09:22:33;9.70;99.90
46652;DHT22;32377;52.182;5.398;2024-03-02T09:24:58;9.70;99.90
46652;DHT22;32377;52.182;5.398;2024-03-02T09:27:24;9.80;99.90
46652;DHT22;32377;52.182;5.398;2024-03-02T09:29:50;9.80;99.90
46652;DHT22;32377;52.182;5.398;2024-03-02T09:32:15;9.90;99.90
46652;DHT22;32377;52.182;5.398;2024-03-02T09:34:41;10.00;99.90
46652;DHT22;32377;52.182;5.398;2024-03-02T09:37:07;10.10;99.90
46652;DHT22;32377;52.182;5.398;2024-03-02T09:39:33;10.20;99.90
46652;DHT22;32377;52.182;5.398;2024-03-02T09:42:01;10.30;99.90
46652;DHT22;32377;52.182;5.398;2024-03-02T09:44:29;10.30;99.90
46652;DHT22;32377;52.182;5.398;2024-03-02T09:46:55;10.40;99.90
46652;DHT22;32377;52.182;5.398;2024-03-02T09:49:21;10.40;99.90
46652;DHT22;32377;52.182;5.398;2024-03-02T09:51:48;10.50;99.90
46652;DHT22;32377;52.182;5.398;2024-03-02T09:54:15;10.50;99.90
46652;DHT22;32377;52.182;5.398;2024-03-02T09:56:41;10.70;99.90
46652;DHT22;32377;52.182;5.398;2024-03-02T09:59:07;10.70;99.90
46652;DHT22;32377;52.182;5.398;2024-03-02T10:01:32;10.70;99.90
46652;DHT22;32377;52.182;5.398;2024-03-02T10:04:01;10.80;99.90
46652;DHT22;32377;52.182;5.398;2024-03-02T10:06:30;10.80;99.90
46652;DHT22;32377;52.182;5.398;2024-03-02T10:08:55;10.90;99.90
46652;DHT22;32377;52.182;5.398;2024-03-02T10:11:35;11.00;99.90
46652;DHT22;32377;52.182;5.398;2024-03-02T10:14:12;11.00;99.90
46652;DHT22;32377;52.182;5.398;2024-03-02T10:16:40;11.00;99.90
46652;DHT22;32377;52.182;5.398;2024-03-02T10:19:19;11.10;99.90
46652;DHT22;32377;52.182;5.398;2024-03-02T10:21:54;11.00;99.90
46652;DHT22;32377;52.182;5.398;2024-03-02T10:24:22;11.10;99.90
46652;DHT22;32377;52.182;5.398;2024-03-02T10:26:48;11.20;99.90
46652;DHT22;32377;52.182;5.398;2024-03-02T10:29:14;11.30;99.90
46652;DHT22;32377;52.182;5.398;2024-03-02T10:31:44;11.30;99.90
46652;DHT22;32377;52.182;5.398;2024-03-02T10:34:11;11.40;99.90
46652;DHT22;32377;52.182;5.398;2024-03-02T10:36:40;11.40;99.90
46652;DHT22;32377;52.182;5.398;2024-03-02T10:39:08;11.50;99.90
46652;DHT22;32377;52.182;5.398;2024-03-02T10:41:35;11.60;99.90
46652;DHT22;32377;52.182;5.398;2024-03-02T10:44:06;11.60;99.90
46652;DHT22;32377;52.182;5.398;2024-03-02T10:46:33;11.60;99.10
46652;DHT22;32377;52.182;5.398;2024-03-02T10:49:00;11.70;99.90
46652;DHT22;32377;52.182;5.398;2024-03-02T10:51:28;11.70;96.40
46652;DHT22;32377;52.182;5.398;2024-03-02T10:53:58;11.80;92.80
46652;DHT22;32377;52.182;5.398;2024-03-02T10:59:34;11.70;92.80
46652;DHT22;32377;52.182;5.398;2024-03-02T11:02:01;11.70;93.10
46652;DHT22;32377;52.182;5.398;2024-03-02T11:04:29;11.70;95.50
46652;DHT22;32377;52.182;5.398;2024-03-02T11:07:08;11.70;97.40
46652;DHT22;32377;52.182;5.398;2024-03-02T11:09:38;11.70;99.20
46652;DHT22;32377;52.182;5.398;2024-03-02T11:12:44;11.90;99.90
46652;DHT22;32377;52.182;5.398;2024-03-02T11:15:17;11.90;86.20
46652;DHT22;32377;52.182;5.398;2024-03-02T11:17:44;11.90;93.80
46652;DHT22;32377;52.182;5.398;2024-03-02T11:20:10;11.90;85.00
46652;DHT22;32377;52.182;5.398;2024-03-02T11:22:36;11.90;90.10
46652;DHT22;32377;52.182;5.398;2024-03-02T11:25:02;12.00;84.50
46652;DHT22;32377;52.182;5.398;2024-03-02T11:32:58;12.30;77.70
46652;DHT22;32377;52.182;5.398;2024-03-02T11:35:27;12.30;81.80
46652;DHT22;32377;52.182;5.398;2024-03-02T11:37:56;12.30;56.10
46652;DHT22;32377;52.182;5.398;2024-03-02T11:40:28;12.40;44.50
46652;DHT22;32377;52.182;5.398;2024-03-02T11:42:53;12.40;41.20
46652;DHT22;32377;52.182;5.398;2024-03-02T11:45:37;12.30;39.90
46652;DHT22;32377;52.182;5.398;2024-03-02T11:48:09;12.30;44.20
46652;DHT22;32377;52.182;5.398;2024-03-02T11:50:49;12.30;34.90
46652;DHT22;32377;52.182;5.398;2024-03-02T11:53:15;12.40;29.60
46652;DHT22;32377;52.182;5.398;2024-03-02T11:55:41;12.40;29.30
46652;DHT22;32377;52.182;5.398;2024-03-02T11:58:12;12.50;30.90
46652;DHT22;32377;52.182;5.398;2024-03-02T12:00:38;12.50;24.80
46652;DHT22;32377;52.182;5.398;2024-03-02T12:03:08;12.50;33.60
46652;DHT22;32377;52.182;5.398;2024-03-02T12:05:34;12.50;28.10
46652;DHT22;32377;52.182;5.398;2024-03-02T12:08:02;12.50;22.80
46652;DHT22;32377;52.182;5.398;2024-03-02T12:10:28;12.60;22.60
46652;DHT22;32377;52.182;5.398;2024-03-02T12:13:05;12.60;17.60
46652;DHT22;32377;52.182;5.398;2024-03-02T12:15:34;12.70;18.20
46652;DHT22;32377;52.182;5.398;2024-03-02T12:18:01;12.70;5.80
46652;DHT22;32377;52.182;5.398;2024-03-02T12:20:29;12.70;7.30
46652;DHT22;32377;52.182;5.398;2024-03-02T12:22:58;12.70;8.80
46652;DHT22;32377;52.182;5.398;2024-03-02T12:25:25;12.80;13.10
46652;DHT22;32377;52.182;5.398;2024-03-02T12:27:55;12.90;12.60
46652;DHT22;32377;52.182;5.398;2024-03-02T12:30:22;12.80;11.40
46652;DHT22;32377;52.182;5.398;2024-03-02T12:32:48;12.70;2.30
46652;DHT22;32377;52.182;5.398;2024-03-02T12:35:14;12.70;12.10
46652;DHT22;32377;52.182;5.398;2024-03-02T12:37:51;12.90;8.70
46652;DHT22;32377;52.182;5.398;2024-03-02T12:40:18;13.10;16.90
46652;DHT22;32377;52.182;5.398;2024-03-02T12:42:48;13.10;21.90
46652;DHT22;32377;52.182;5.398;2024-03-02T12:45:15;13.20;24.80
46652;DHT22;32377;52.182;5.398;2024-03-02T12:47:42;13.10;25.80
46652;DHT22;32377;52.182;5.398;2024-03-02T12:50:09;13.20;25.70
46652;DHT22;32377;52.182;5.398;2024-03-02T12:52:34;13.00;28.80
46652;DHT22;32377;52.182;5.398;2024-03-02T12:55:02;13.00;37.40
46652;DHT22;32377;52.182;5.398;2024-03-02T12:57:30;13.00;40.50
46652;DHT22;32377;52.182;5.398;2024-03-02T13:00:04;13.10;34.90
46652;DHT22;32377;52.182;5.398;2024-03-02T13:02:40;13.10;23.10
46652;DHT22;32377;52.182;5.398;2024-03-02T13:05:07;13.10;34.80
46652;DHT22;32377;52.182;5.398;2024-03-02T13:07:40;13.10;35.20
46652;DHT22;32377;52.182;5.398;2024-03-02T13:10:06;13.00;26.70
46652;DHT22;32377;52.182;5.398;2024-03-02T13:12:35;13.10;33.70
46652;DHT22;32377;52.182;5.398;2024-03-02T13:15:02;13.20;26.80
46652;DHT22;32377;52.182;5.398;2024-03-02T13:17:29;13.20;29.00
46652;DHT22;32377;52.182;5.398;2024-03-02T13:19:58;13.30;35.90
46652;DHT22;32377;52.182;5.398;2024-03-02T13:22:25;13.20;22.90
46652;DHT22;32377;52.182;5.398;2024-03-02T13:24:52;13.20;27.70
46652;DHT22;32377;52.182;5.398;2024-03-02T13:27:18;13.10;28.40
46652;DHT22;32377;52.182;5.398;2024-03-02T13:29:47;13.20;34.10
46652;DHT22;32377;52.182;5.398;2024-03-02T13:32:14;13.10;31.50
46652;DHT22;32377;52.182;5.398;2024-03-02T13:34:40;13.10;37.50
46652;DHT22;32377;52.182;5.398;2024-03-02T13:37:05;13.10;42.90
46652;DHT22;32377;52.182;5.398;2024-03-02T13:39:31;13.20;40.10
46652;DHT22;32377;52.182;5.398;2024-03-02T13:41:58;13.20;43.80
46652;DHT22;32377;52.182;5.398;2024-03-02T13:44:30;13.30;41.30
46652;DHT22;32377;52.182;5.398;2024-03-02T13:46:56;13.30;44.80
46652;DHT22;32377;52.182;5.398;2024-03-02T13:49:22;13.30;39.60
46652;DHT22;32377;52.182;5.398;2024-03-02T13:51:48;13.30;29.60
46652;DHT22;32377;52.182;5.398;2024-03-02T13:54:14;13.20;30.30
46652;DHT22;32377;52.182;5.398;2024-03-02T13:56:40;13.20;34.00
46652;DHT22;32377;52.182;5.398;2024-03-02T13:59:07;13.20;31.40
46652;DHT22;32377;52.182;5.398;2024-03-02T14:01:33;13.20;35.20
46652;DHT22;32377;52.182;5.398;2024-03-02T14:03:58;13.20;34.90
46652;DHT22;32377;52.182;5.398;2024-03-02T14:06:24;13.20;35.30
46652;DHT22;32377;52.182;5.398;2024-03-02T14:08:52;13.20;38.70
46652;DHT22;32377;52.182;5.398;2024-03-02T14:11:18;13.20;38.20
46652;DHT22;32377;52.182;5.398;2024-03-02T14:13:44;13.10;35.40
46652;DHT22;32377;52.182;5.398;2024-03-02T14:16:19;13.20;33.40
46652;DHT22;32377;52.182;5.398;2024-03-02T14:18:44;13.10;32.80
46652;DHT22;32377;52.182;5.398;2024-03-02T14:21:10;13.10;36.60
46652;DHT22;32377;52.182;5.398;2024-03-02T14:23:36;13.10;43.40
46652;DHT22;32377;52.182;5.398;2024-03-02T14:26:01;13.10;39.20
46652;DHT22;32377;52.182;5.398;2024-03-02T14:28:27;13.10;40.00
46652;DHT22;32377;52.182;5.398;2024-03-02T14:30:53;13.20;40.80
46652;DHT22;32377;52.182;5.398;2024-03-02T14:33:19;13.30;41.90
46652;DHT22;32377;52.182;5.398;2024-03-02T14:35:45;13.40;39.10
46652;DHT22;32377;52.182;5.398;2024-03-02T14:38:11;13.30;33.20
46652;DHT22;32377;52.182;5.398;2024-03-02T14:40:37;13.30;33.90
46652;DHT22;32377;52.182;5.398;2024-03-02T14:43:03;13.30;36.90
46652;DHT22;32377;52.182;5.398;2024-03-02T14:45:29;13.30;34.10
46652;DHT22;32377;52.182;5.398;2024-03-02T14:47:55;13.40;29.40
46652;DHT22;32377;52.182;5.398;2024-03-02T14:50:21;13.50;33.40
46652;DHT22;32377;52.182;5.398;2024-03-02T14:52:47;13.60;28.50
46652;DHT22;32377;52.182;5.398;2024-03-02T14:55:12;13.70;34.10
46652;DHT22;32377;52.182;5.398;2024-03-02T14:57:38;13.70;37.50
46652;DHT22;32377;52.182;5.398;2024-03-02T15:00:04;13.70;44.30
46652;DHT22;32377;52.182;5.398;2024-03-02T15:02:33;13.80;41.80
46652;DHT22;32377;52.182;5.398;2024-03-02T15:04:59;13.80;38.40
46652;DHT22;32377;52.182;5.398;2024-03-02T15:07:25;13.70;29.30
46652;DHT22;32377;52.182;5.398;2024-03-02T15:09:51;13.70;38.10
46652;DHT22;32377;52.182;5.398;2024-03-02T15:12:19;13.70;36.40
46652;DHT22;32377;52.182;5.398;2024-03-02T15:14:45;13.80;35.70
46652;DHT22;32377;52.182;5.398;2024-03-02T15:17:15;13.70;37.00
46652;DHT22;32377;52.182;5.398;2024-03-02T15:19:45;13.70;34.10
46652;DHT22;32377;52.182;5.398;2024-03-02T15:22:11;13.80;39.80
46652;DHT22;32377;52.182;5.398;2024-03-02T15:24:37;13.90;37.20
46652;DHT22;32377;52.182;5.398;2024-03-02T15:27:04;13.80;43.50
46652;DHT22;32377;52.182;5.398;2024-03-02T15:29:36;13.80;41.70
46652;DHT22;32377;52.182;5.398;2024-03-02T15:32:03;13.60;34.10
46652;DHT22;32377;52.182;5.398;2024-03-02T15:34:32;13.60;39.70
46652;DHT22;32377;52.182;5.398;2024-03-02T15:36:58;13.50;37.80
46652;DHT22;32377;52.182;5.398;2024-03-02T15:39:25;13.50;41.00
46652;DHT22;32377;52.182;5.398;2024-03-02T15:41:54;13.50;34.00
46652;DHT22;32377;52.182;5.398;2024-03-02T15:44:19;13.50;40.80
46652;DHT22;32377;52.182;5.398;2024-03-02T15:46:45;13.40;33.80
46652;DHT22;32377;52.182;5.398;2024-03-02T15:49:11;13.30;37.50
46652;DHT22;32377;52.182;5.398;2024-03-02T15:51:36;13.30;36.10
46652;DHT22;32377;52.182;5.398;2024-03-02T15:54:06;13.10;50.20
46652;DHT22;32377;52.182;5.398;2024-03-02T15:56:33;13.10;47.00